createdAt,value
2018-09-30T00:00:01.292Z,41.20
2018-09-30T00:02:29.375Z,41.95
2018-09-30T00:04:57.581Z,41.45
2018-09-30T00:07:26.323Z,39.05
2018-09-30T00:09:54.557Z,40.55
2018-09-30T00:12:22.581Z,39.85
2018-09-30T00:14:52.793Z,41.65
2018-09-30T00:17:20.865Z,39.33
2018-09-30T00:19:48.934Z,40.92
2018-09-30T00:22:17.018Z,41.92
2018-09-30T00:24:54.309Z,40.38
2018-09-30T00:27:22.752Z,40.85
2018-09-30T00:29:50.656Z,39.03
2018-09-30T00:32:18.827Z,40.35
2018-09-30T00:34:46.873Z,41.30
2018-09-30T00:37:14.873Z,41.37
2018-09-30T00:39:43.028Z,41.42
2018-09-30T00:42:11.163Z,42.83
2018-09-30T00:44:39.196Z,40.88
2018-09-30T00:47:07.126Z,40.75
2018-09-30T00:49:35.345Z,43.68
2018-09-30T00:52:03.372Z,43.45
2018-09-30T00:54:31.477Z,43.10
2018-09-30T00:56:59.439Z,42.00
2018-09-30T00:59:27.603Z,41.55
2018-09-30T01:01:55.660Z,42.40
2018-09-30T01:04:23.792Z,42.13
2018-09-30T01:06:51.843Z,41.15
2018-09-30T01:09:19.775Z,41.02
2018-09-30T01:11:47.962Z,40.55
2018-09-30T01:14:16.023Z,41.92
2018-09-30T01:16:44.108Z,42.48
2018-09-30T01:19:12.168Z,43.48
2018-09-30T01:21:40.248Z,44.27
2018-09-30T01:24:08.292Z,43.38
2018-09-30T01:26:36.463Z,42.95
2018-09-30T01:29:04.468Z,42.70
2018-09-30T01:31:32.952Z,43.02
2018-09-30T01:34:00.816Z,42.75
2018-09-30T01:36:28.964Z,42.27
2018-09-30T01:38:57.478Z,41.33
2018-09-30T01:41:25.637Z,42.33
2018-09-30T01:43:53.786Z,42.17
2018-09-30T01:46:21.904Z,41.55
2018-09-30T01:48:49.953Z,37.38
2018-09-30T01:51:18.024Z,34.48
2018-09-30T01:53:47.033Z,37.53
2018-09-30T01:56:15.084Z,34.78
2018-09-30T01:58:43.153Z,34.00
2018-09-30T02:01:11.252Z,33.83
2018-09-30T02:03:39.267Z,33.20
2018-09-30T02:06:07.393Z,31.35
2018-09-30T02:08:35.389Z,30.43
2018-09-30T02:11:03.628Z,29.92
2018-09-30T02:13:31.875Z,28.95
2018-09-30T02:15:59.939Z,29.72
2018-09-30T02:18:28.053Z,30.50
2018-09-30T02:20:55.999Z,30.75
2018-09-30T02:23:24.208Z,29.25
2018-09-30T02:25:52.227Z,28.55
2018-09-30T02:28:20.323Z,28.57
2018-09-30T02:30:48.931Z,29.67
2018-09-30T02:33:17.108Z,30.72
2018-09-30T02:35:45.149Z,28.25
2018-09-30T02:38:13.207Z,29.10
2018-09-30T02:40:41.317Z,29.55
2018-09-30T02:43:09.252Z,29.40
2018-09-30T02:45:37.460Z,29.60
2018-09-30T02:48:05.538Z,29.85
2018-09-30T02:50:33.577Z,27.00
2018-09-30T02:53:05.332Z,27.77
2018-09-30T02:55:33.457Z,25.85
2018-09-30T02:58:01.513Z,25.60
2018-09-30T03:00:29.552Z,24.18
2018-09-30T03:02:57.636Z,23.12
2018-09-30T03:05:26.948Z,22.27
2018-09-30T03:08:00.344Z,19.32
2018-09-30T03:10:28.588Z,19.95
2018-09-30T03:12:56.698Z,17.73
2018-09-30T03:15:24.731Z,18.32
2018-09-30T03:17:52.780Z,17.00
2018-09-30T03:20:21.675Z,16.57
2018-09-30T03:22:49.905Z,18.00
2018-09-30T03:25:17.831Z,16.02
2018-09-30T03:27:46.072Z,16.82
2018-09-30T03:30:14.303Z,16.45
2018-09-30T03:32:42.543Z,16.70
2018-09-30T03:35:10.449Z,16.75
2018-09-30T03:37:38.616Z,15.80
2018-09-30T03:40:06.748Z,15.45
2018-09-30T03:42:35.575Z,14.85
2018-09-30T03:45:03.718Z,14.68
2018-09-30T03:47:32.531Z,15.48
2018-09-30T03:50:00.811Z,15.23
2018-09-30T03:52:30.146Z,15.00
2018-09-30T03:54:58.165Z,14.50
2018-09-30T03:57:26.336Z,14.65
2018-09-30T03:59:54.607Z,15.28
2018-09-30T04:02:22.721Z,14.45
2018-09-30T04:04:50.756Z,14.28
2018-09-30T04:07:18.937Z,14.68
2018-09-30T04:09:47.278Z,14.70
2018-09-30T04:12:15.264Z,14.50
2018-09-30T04:14:43.557Z,14.18
2018-09-30T04:17:11.723Z,15.35
2018-09-30T04:19:40.754Z,13.80
2018-09-30T04:22:08.790Z,16.20
2018-09-30T04:24:36.777Z,14.40
2018-09-30T04:27:05.735Z,14.05
2018-09-30T04:29:34.669Z,15.05
2018-09-30T04:32:02.504Z,13.03
2018-09-30T04:34:30.687Z,14.78
2018-09-30T04:36:58.807Z,15.35
2018-09-30T04:39:28.080Z,15.13
2018-09-30T04:41:56.648Z,15.63
2018-09-30T04:44:24.803Z,15.23
2018-09-30T04:46:52.974Z,15.70
2018-09-30T04:49:21.257Z,15.60
2018-09-30T04:51:49.333Z,16.50
2018-09-30T04:54:18.124Z,16.35
2018-09-30T04:56:46.010Z,17.65
2018-09-30T04:59:14.164Z,18.75
2018-09-30T05:01:42.297Z,17.30
2018-09-30T05:04:10.303Z,17.35
2018-09-30T05:06:39.332Z,18.60
2018-09-30T05:09:08.108Z,19.67
2018-09-30T05:11:36.348Z,20.27
2018-09-30T05:14:04.455Z,20.25
2018-09-30T05:16:32.581Z,24.07
2018-09-30T05:19:00.471Z,21.85
2018-09-30T05:21:28.776Z,23.50
2018-09-30T05:23:57.039Z,24.00
2018-09-30T05:26:25.135Z,25.57
2018-09-30T05:28:53.544Z,25.12
2018-09-30T05:31:21.656Z,25.75
2018-09-30T05:33:49.949Z,24.27
2018-09-30T05:36:17.988Z,24.80
2018-09-30T05:38:46.080Z,23.30
2018-09-30T05:41:14.171Z,24.98
2018-09-30T05:43:42.184Z,26.75
2018-09-30T05:46:10.331Z,24.35
2018-09-30T05:48:38.437Z,25.35
2018-09-30T05:51:06.477Z,25.52
2018-09-30T05:53:34.462Z,24.85
2018-09-30T05:56:03.217Z,25.23
2018-09-30T05:58:31.167Z,27.55
2018-09-30T06:00:59.219Z,28.12
2018-09-30T06:10:30.855Z,23.70
2018-09-30T06:12:59.145Z,21.05
2018-09-30T06:15:27.076Z,22.90
2018-09-30T06:17:55.303Z,21.82
2018-09-30T06:20:23.323Z,18.87
2018-09-30T06:22:51.306Z,19.10
2018-09-30T06:25:19.490Z,18.82
2018-09-30T06:27:47.445Z,19.90
2018-09-30T06:30:15.611Z,19.52
2018-09-30T06:32:44.980Z,21.57
2018-09-30T06:35:13.266Z,21.30
2018-09-30T06:37:41.347Z,21.35
2018-09-30T06:40:09.337Z,23.57
2018-09-30T06:42:37.543Z,22.07
2018-09-30T06:45:05.684Z,24.95
2018-09-30T06:47:33.932Z,23.52
2018-09-30T06:50:02.027Z,24.70
2018-09-30T06:52:29.965Z,23.60
2018-09-30T06:54:58.229Z,24.20
2018-09-30T06:57:26.531Z,24.13
2018-09-30T06:59:54.641Z,24.77
2018-09-30T07:02:22.587Z,23.40
2018-09-30T07:04:50.823Z,22.97
2018-09-30T07:07:18.725Z,19.70
2018-09-30T07:09:46.878Z,22.37
2018-09-30T07:12:17.144Z,23.40
2018-09-30T07:14:45.576Z,23.50
2018-09-30T07:17:13.916Z,28.33
2018-09-30T07:19:41.923Z,27.50
2018-09-30T07:22:10.451Z,28.30
2018-09-30T07:24:38.298Z,29.10
2018-09-30T07:27:06.627Z,30.53
2018-09-30T07:29:35.405Z,29.30
2018-09-30T07:32:03.451Z,30.90
2018-09-30T07:34:31.478Z,30.00
2018-09-30T07:36:59.928Z,28.07
2018-09-30T07:39:28.289Z,29.73
2018-09-30T07:41:56.414Z,29.73
2018-09-30T07:44:24.552Z,29.70
2018-09-30T07:46:52.645Z,30.00
2018-09-30T07:49:20.705Z,28.60
2018-09-30T07:51:48.718Z,27.20
2018-09-30T07:54:16.845Z,27.82
2018-09-30T07:56:45.169Z,29.23
2018-09-30T07:59:13.156Z,24.55
2018-09-30T08:01:42.285Z,25.12
2018-09-30T08:04:10.286Z,19.98
2018-09-30T08:06:38.410Z,16.97
2018-09-30T08:09:07.544Z,14.55
2018-09-30T08:11:35.741Z,12.85
2018-09-30T08:14:03.834Z,13.65
2018-09-30T08:16:32.000Z,12.95
2018-09-30T08:19:00.263Z,14.00
2018-09-30T08:21:28.356Z,13.45
2018-09-30T08:23:56.591Z,13.25
2018-09-30T08:26:24.848Z,13.43
2018-09-30T08:28:52.744Z,13.55
2018-09-30T08:31:20.928Z,13.40
2018-09-30T08:33:48.718Z,17.32
2018-09-30T08:36:16.847Z,13.90
2018-09-30T08:38:45.112Z,14.33
2018-09-30T08:41:13.256Z,14.70
2018-09-30T08:43:42.483Z,14.87
2018-09-30T08:46:10.536Z,14.15
2018-09-30T08:48:38.635Z,13.38
2018-09-30T08:51:06.609Z,13.53
2018-09-30T08:53:34.887Z,12.23
2018-09-30T08:56:02.832Z,12.95
2018-09-30T08:58:30.857Z,12.47
2018-09-30T09:00:59.038Z,11.57
2018-09-30T09:03:26.959Z,12.85
2018-09-30T09:05:55.218Z,12.03
2018-09-30T09:08:23.208Z,11.70
2018-09-30T09:10:51.278Z,11.28
2018-09-30T09:13:19.388Z,11.03
2018-09-30T09:15:47.484Z,13.03
2018-09-30T09:18:15.556Z,11.83
2018-09-30T09:20:43.605Z,10.15
2018-09-30T09:23:11.757Z,11.03
2018-09-30T09:25:40.254Z,11.63
2018-09-30T09:28:08.593Z,9.73
2018-09-30T09:30:36.801Z,9.60
2018-09-30T09:33:04.808Z,11.03
2018-09-30T09:35:32.963Z,9.88
2018-09-30T09:38:01.020Z,9.65
2018-09-30T09:40:29.127Z,10.65
2018-09-30T09:42:57.167Z,31.65
2018-09-30T09:45:25.259Z,24.00
2018-09-30T09:47:53.201Z,16.77
2018-09-30T09:50:21.383Z,8.73
2018-09-30T09:52:49.716Z,8.30
2018-09-30T09:55:17.854Z,7.62
2018-09-30T09:57:46.240Z,7.72
2018-09-30T10:00:19.749Z,10.10
2018-09-30T10:02:47.931Z,8.45
2018-09-30T10:05:16.317Z,7.90
2018-09-30T10:07:44.329Z,7.70
2018-09-30T10:10:12.399Z,8.47
2018-09-30T10:12:40.465Z,9.07
2018-09-30T10:15:08.471Z,8.67
2018-09-30T10:17:36.603Z,8.27
2018-09-30T10:20:04.976Z,8.33
2018-09-30T10:22:33.037Z,7.20
2018-09-30T10:25:01.543Z,7.40
2018-09-30T10:27:29.439Z,8.10
2018-09-30T10:29:58.361Z,7.55
2018-09-30T10:32:26.527Z,6.55
2018-09-30T10:34:54.597Z,7.10
2018-09-30T10:37:24.941Z,6.47
2018-09-30T10:39:52.866Z,6.60
2018-09-30T10:42:20.971Z,6.60
2018-09-30T10:44:49.108Z,5.72
2018-09-30T10:47:17.986Z,5.83
2018-09-30T10:49:46.190Z,5.55
2018-09-30T10:52:14.231Z,5.70
2018-09-30T10:54:42.328Z,4.90
2018-09-30T10:57:10.332Z,5.62
2018-09-30T10:59:38.424Z,6.25
2018-09-30T11:02:06.430Z,4.65
2018-09-30T11:04:34.540Z,5.47
2018-09-30T11:07:02.590Z,5.47
2018-09-30T11:09:30.796Z,5.65
2018-09-30T11:11:58.816Z,5.28
2018-09-30T11:14:26.832Z,6.62
2018-09-30T11:16:54.926Z,5.33
2018-09-30T11:19:23.427Z,5.22
2018-09-30T11:21:51.866Z,5.90
2018-09-30T11:24:20.044Z,5.30
2018-09-30T11:26:48.102Z,4.83
2018-09-30T11:29:16.171Z,4.70
2018-09-30T11:31:44.276Z,4.90
2018-09-30T11:34:12.322Z,5.80
2018-09-30T11:36:40.418Z,4.50
2018-09-30T11:39:09.122Z,4.75
2018-09-30T11:41:37.179Z,6.55
2018-09-30T11:44:05.215Z,4.22
2018-09-30T11:46:33.400Z,4.45
2018-09-30T11:49:01.701Z,5.78
2018-09-30T11:51:29.757Z,6.20
2018-09-30T11:53:58.789Z,5.65
2018-09-30T11:56:26.544Z,6.45
2018-09-30T11:58:55.027Z,7.12
2018-09-30T12:01:23.299Z,7.78
2018-09-30T12:03:51.272Z,7.35
2018-09-30T12:06:19.559Z,6.92
2018-09-30T12:08:47.759Z,5.85
2018-09-30T12:11:15.922Z,6.20
2018-09-30T12:13:43.923Z,5.30
2018-09-30T12:16:11.993Z,5.83
2018-09-30T12:18:42.313Z,6.10
2018-09-30T12:21:10.263Z,6.08
2018-09-30T12:23:38.633Z,6.03
2018-09-30T12:26:07.100Z,5.50
2018-09-30T12:28:35.154Z,6.35
2018-09-30T12:31:03.195Z,5.33
2018-09-30T12:33:31.316Z,5.70
2018-09-30T12:35:59.324Z,6.00
2018-09-30T12:38:27.385Z,6.17
2018-09-30T12:40:55.379Z,7.00
2018-09-30T12:43:23.599Z,7.83
2018-09-30T12:45:51.588Z,8.40
2018-09-30T12:48:19.665Z,8.40
2018-09-30T12:50:47.795Z,7.30
2018-09-30T12:53:15.805Z,8.20
2018-09-30T12:55:43.916Z,7.60
2018-09-30T12:58:12.151Z,6.53
2018-09-30T13:00:39.918Z,7.00
2018-09-30T13:03:08.092Z,7.15
2018-09-30T13:05:36.167Z,7.22
2018-09-30T13:08:04.262Z,7.30
2018-09-30T13:10:32.237Z,6.55
2018-09-30T13:13:00.495Z,6.67
2018-09-30T13:15:29.748Z,6.45
2018-09-30T13:17:57.791Z,7.72
2018-09-30T13:20:26.796Z,7.75
2018-09-30T13:22:54.840Z,6.97
2018-09-30T13:25:22.912Z,7.40
2018-09-30T13:27:50.904Z,8.00
2018-09-30T13:30:19.139Z,7.92
2018-09-30T13:32:47.948Z,6.80
2018-09-30T13:35:15.989Z,6.60
2018-09-30T13:37:44.400Z,7.65
2018-09-30T13:40:12.662Z,7.00
2018-09-30T13:42:40.697Z,7.12
2018-09-30T13:45:08.953Z,7.90
2018-09-30T13:47:37.068Z,7.80
2018-09-30T13:50:05.228Z,7.10
2018-09-30T13:52:33.244Z,8.50
2018-09-30T13:55:02.152Z,8.05
2018-09-30T13:57:30.271Z,7.28
2018-09-30T13:59:58.349Z,8.40
2018-09-30T14:02:26.427Z,8.98
2018-09-30T14:04:54.555Z,8.83
2018-09-30T14:07:22.611Z,8.00
2018-09-30T14:09:50.417Z,7.75
2018-09-30T14:12:18.725Z,8.93
2018-09-30T14:14:46.757Z,8.25
2018-09-30T14:17:14.755Z,7.10
2018-09-30T14:21:07.549Z,6.60
2018-09-30T14:23:35.603Z,6.87
2018-09-30T14:26:03.912Z,6.65
2018-09-30T14:28:31.908Z,6.80
2018-09-30T14:31:00.037Z,6.70
2018-09-30T14:33:28.106Z,6.00
2018-09-30T14:35:56.195Z,5.85
2018-09-30T14:38:24.209Z,5.50
2018-09-30T14:40:52.304Z,6.87
2018-09-30T14:43:20.330Z,6.45
2018-09-30T14:45:48.694Z,5.97
2018-09-30T14:48:16.889Z,6.55
2018-09-30T14:50:46.127Z,6.25
2018-09-30T14:53:14.190Z,6.30
2018-09-30T14:55:44.038Z,6.30
2018-09-30T14:58:12.165Z,5.42
2018-09-30T15:00:40.235Z,5.10
2018-09-30T15:03:09.601Z,5.60
2018-09-30T15:05:37.357Z,6.25
2018-09-30T15:08:05.324Z,5.83
2018-09-30T15:10:33.504Z,5.55
2018-09-30T15:13:01.520Z,6.40
2018-09-30T15:15:29.595Z,5.65
2018-09-30T15:17:57.771Z,5.50
2018-09-30T15:20:26.993Z,5.62
2018-09-30T15:22:55.032Z,6.25
2018-09-30T15:25:23.081Z,5.87
2018-09-30T15:27:51.071Z,5.50
2018-09-30T15:30:19.260Z,6.75
2018-09-30T15:32:47.300Z,5.70
2018-09-30T15:35:15.815Z,5.87
2018-09-30T15:37:44.203Z,6.33
2018-09-30T15:40:12.424Z,7.12
2018-09-30T15:42:40.531Z,11.48
2018-09-30T15:45:10.087Z,14.47
2018-09-30T15:47:38.212Z,17.17
2018-09-30T15:50:06.509Z,18.80
2018-09-30T15:52:34.542Z,18.12
2018-09-30T15:55:02.712Z,18.62
2018-09-30T15:57:30.779Z,18.77
2018-09-30T15:59:58.832Z,20.27
2018-09-30T16:02:26.968Z,19.10
2018-09-30T16:04:54.884Z,20.50
2018-09-30T16:07:23.088Z,19.60
2018-09-30T16:09:51.035Z,21.12
2018-09-30T16:12:19.261Z,19.10
2018-09-30T16:14:47.233Z,20.65
2018-09-30T16:17:15.651Z,20.17
2018-09-30T16:19:43.825Z,20.00
2018-09-30T16:22:12.200Z,19.82
2018-09-30T16:24:40.584Z,21.95
2018-09-30T16:27:09.390Z,20.65
2018-09-30T16:29:37.594Z,20.97
2018-09-30T16:32:05.607Z,20.17
2018-09-30T16:34:33.688Z,18.77
2018-09-30T16:37:01.853Z,19.12
2018-09-30T16:39:30.136Z,19.15
2018-09-30T16:41:58.235Z,19.52
2018-09-30T16:44:26.352Z,17.35
2018-09-30T16:46:54.343Z,18.17
2018-09-30T16:49:22.440Z,16.45
2018-09-30T16:51:50.425Z,17.77
2018-09-30T16:54:18.628Z,17.42
2018-09-30T16:56:46.689Z,15.60
2018-09-30T16:59:14.716Z,16.90
2018-09-30T17:01:42.817Z,15.63
2018-09-30T17:04:10.907Z,14.63
2018-09-30T17:06:39.012Z,15.60
2018-09-30T17:09:07.040Z,15.58
2018-09-30T17:11:35.256Z,15.28
2018-09-30T17:14:03.508Z,15.68
2018-09-30T17:16:31.495Z,13.72
2018-09-30T17:18:59.607Z,14.33
2018-09-30T17:21:27.647Z,15.43
2018-09-30T17:23:55.984Z,14.98
2018-09-30T17:26:24.040Z,14.98
2018-09-30T17:28:52.336Z,14.50
2018-09-30T17:31:20.616Z,13.72
2018-09-30T17:33:49.678Z,14.28
2018-09-30T17:36:17.619Z,14.80
2018-09-30T17:38:47.004Z,15.83
2018-09-30T17:41:15.316Z,14.63
2018-09-30T17:43:43.387Z,14.78
2018-09-30T17:46:12.684Z,13.83
2018-09-30T17:48:40.759Z,13.60
2018-09-30T17:51:09.016Z,15.40
2018-09-30T17:53:37.300Z,15.00
2018-09-30T17:56:05.547Z,13.55
2018-09-30T17:58:34.467Z,13.43
2018-09-30T18:01:02.701Z,13.83
2018-09-30T18:03:30.783Z,14.55
2018-09-30T18:05:58.801Z,15.10
2018-09-30T18:08:26.903Z,13.90
2018-09-30T18:10:55.190Z,15.05
2018-09-30T18:13:23.213Z,16.45
2018-09-30T18:15:51.425Z,15.18
2018-09-30T18:18:19.373Z,16.20
2018-09-30T18:20:47.542Z,22.37
2018-09-30T18:23:15.463Z,21.87
2018-09-30T18:25:43.636Z,20.02
2018-09-30T18:28:11.750Z,18.90
2018-09-30T18:30:40.680Z,15.48
2018-09-30T18:33:08.893Z,15.68
2018-09-30T18:35:36.811Z,13.48
2018-09-30T18:38:04.833Z,13.32
2018-09-30T18:40:49.420Z,12.78
2018-09-30T18:43:17.276Z,12.40
2018-09-30T18:45:45.488Z,12.50
2018-09-30T18:48:14.363Z,12.05
2018-09-30T18:50:42.525Z,10.88
2018-09-30T18:53:10.560Z,11.65
2018-09-30T18:55:38.635Z,11.55
2018-09-30T18:58:06.796Z,11.85
2018-09-30T19:00:35.110Z,12.85
2018-09-30T19:03:03.252Z,12.82
2018-09-30T19:05:31.589Z,12.13
2018-09-30T19:07:59.645Z,10.23
2018-09-30T19:10:27.639Z,10.93
2018-09-30T19:12:55.743Z,11.18
2018-09-30T19:15:23.829Z,11.20
2018-09-30T19:17:51.891Z,10.50
2018-09-30T19:20:20.460Z,11.88
2018-09-30T19:22:50.070Z,10.95
2018-09-30T19:25:18.408Z,11.10
2018-09-30T19:27:47.002Z,11.03
2018-09-30T19:30:15.064Z,10.45
2018-09-30T19:32:43.032Z,12.70
2018-09-30T19:35:11.144Z,11.57
2018-09-30T19:37:39.127Z,10.10
2018-09-30T19:40:07.356Z,11.43
2018-09-30T19:42:35.278Z,10.85
2018-09-30T19:45:03.793Z,12.35
2018-09-30T19:47:31.812Z,11.85
2018-09-30T19:49:59.937Z,11.68
2018-09-30T19:52:27.980Z,11.08
2018-09-30T19:54:56.048Z,11.97
2018-09-30T19:57:24.232Z,11.28
2018-09-30T20:00:55.589Z,10.65
2018-09-30T20:03:23.831Z,10.85
2018-09-30T20:05:51.925Z,11.75
2018-09-30T20:08:20.034Z,11.30
2018-09-30T20:10:48.051Z,11.83
2018-09-30T20:13:16.149Z,11.40
2018-09-30T20:15:44.184Z,10.45
2018-09-30T20:18:12.279Z,9.90
2018-09-30T20:20:40.379Z,9.58
2018-09-30T20:23:08.389Z,9.93
2018-09-30T20:25:36.485Z,8.78
2018-09-30T20:28:04.973Z,8.53
2018-09-30T20:30:32.912Z,9.48
2018-09-30T20:33:00.959Z,9.35
2018-09-30T20:35:29.996Z,9.28
2018-09-30T20:37:58.113Z,9.28
2018-09-30T20:40:26.128Z,9.10
2018-09-30T20:42:54.279Z,7.72
2018-09-30T20:45:22.265Z,9.05
2018-09-30T20:47:50.368Z,9.08
2018-09-30T20:50:18.438Z,8.40
2018-09-30T20:52:46.468Z,8.53
2018-09-30T20:55:14.464Z,7.97
2018-09-30T20:57:42.536Z,7.97
2018-09-30T21:00:10.667Z,7.55
2018-09-30T21:02:40.912Z,7.58
2018-09-30T21:05:24.416Z,6.90
2018-09-30T21:07:52.455Z,7.58
2018-09-30T21:10:20.518Z,7.00
2018-09-30T21:12:48.486Z,8.60
2018-09-30T21:15:16.527Z,7.97
2018-09-30T21:17:45.624Z,7.50
2018-09-30T21:20:14.488Z,7.15
2018-09-30T21:22:42.758Z,7.00
2018-09-30T21:25:10.679Z,7.37
2018-09-30T21:27:38.828Z,6.80
2018-09-30T21:30:06.979Z,6.97
2018-09-30T21:32:38.672Z,7.00
2018-09-30T21:35:06.821Z,7.55
2018-09-30T21:37:35.115Z,7.00
2018-09-30T21:40:03.212Z,7.75
2018-09-30T21:42:31.179Z,7.00
2018-09-30T21:44:59.324Z,7.55
2018-09-30T21:47:27.450Z,7.60
2018-09-30T21:49:55.480Z,7.37
2018-09-30T21:52:23.523Z,7.60
2018-09-30T21:54:52.512Z,7.78
2018-09-30T21:57:20.579Z,7.00
2018-09-30T21:59:48.692Z,7.15
2018-09-30T22:02:16.765Z,7.37
2018-09-30T22:04:44.723Z,7.10
2018-09-30T22:07:12.881Z,7.40
2018-09-30T22:09:41.020Z,6.12
2018-09-30T22:12:09.012Z,6.25
2018-09-30T22:14:37.136Z,6.75
2018-09-30T22:17:06.590Z,6.58
2018-09-30T22:19:34.768Z,6.40
2018-09-30T22:22:02.876Z,5.95
2018-09-30T22:24:30.939Z,6.12
2018-09-30T22:26:58.980Z,5.33
2018-09-30T22:29:26.986Z,6.12
2018-09-30T22:31:55.108Z,6.58
2018-09-30T22:34:23.230Z,6.58
2018-09-30T22:36:51.248Z,6.03
2018-09-30T22:39:19.355Z,5.78
2018-09-30T22:41:47.335Z,5.42
2018-09-30T22:44:15.447Z,6.40
2018-09-30T22:46:43.595Z,5.55
2018-09-30T22:49:12.939Z,5.12
2018-09-30T22:51:40.960Z,5.10
2018-09-30T22:54:08.998Z,5.35
2018-09-30T22:56:37.097Z,6.30
2018-09-30T22:59:05.188Z,5.00
2018-09-30T23:01:33.099Z,6.40
2018-09-30T23:04:01.284Z,6.20
2018-09-30T23:06:29.247Z,5.37
2018-09-30T23:08:57.074Z,5.70
2018-09-30T23:11:25.090Z,5.55
2018-09-30T23:13:53.270Z,5.30
2018-09-30T23:16:21.279Z,4.80
2018-09-30T23:18:49.405Z,5.40
2018-09-30T23:21:17.573Z,4.65
2018-09-30T23:23:45.459Z,4.85
2018-09-30T23:26:13.660Z,4.62
2018-09-30T23:28:41.710Z,4.87
2018-09-30T23:31:09.763Z,5.15
2018-09-30T23:33:37.889Z,4.85
2018-09-30T23:36:05.952Z,5.03
2018-09-30T23:38:34.037Z,4.90
2018-09-30T23:41:02.057Z,5.50
2018-09-30T23:43:30.104Z,5.50
2018-09-30T23:45:58.253Z,4.80
2018-09-30T23:48:26.669Z,5.25
2018-09-30T23:50:54.987Z,4.65
2018-09-30T23:53:23.560Z,5.78
2018-09-30T23:55:51.766Z,4.12
2018-09-30T23:58:19.780Z,4.05
